sensor_id;sensor_type;location;lat;lon;timestamp;P1;durP1;ratioP1;P2;durP2;ratioP2
56746;SDS011;42623;49.978;9.966;2023-11-21T00:00:08;10.32;;;6.30;;
56746;SDS011;42623;49.978;9.966;2023-11-21T00:00:22;9.45;;;5.97;;
56746;SDS011;42623;49.978;9.966;2023-11-21T00:00:32;9.30;;;5.47;;
56746;SDS011;42623;49.978;9.966;2023-11-21T00:00:42;8.73;;;5.30;;
56746;SDS011;42623;49.978;9.966;2023-11-21T00:00:52;9.47;;;5.77;;
56746;SDS011;42623;49.978;9.966;2023-11-21T00:01:03;8.98;;;5.55;;
56746;SDS011;42623;49.978;9.966;2023-11-21T00:01:14;10.27;;;5.55;;
56746;SDS011;42623;49.978;9.966;2023-11-21T00:01:24;10.60;;;5.20;;
56746;SDS011;42623;49.978;9.966;2023-11-21T00:01:34;10.65;;;5.32;;
56746;SDS011;42623;49.978;9.966;2023-11-21T00:01:45;10.83;;;5.47;;
56746;SDS011;42623;49.978;9.966;2023-11-21T00:01:55;10.00;;;5.50;;
56746;SDS011;42623;49.978;9.966;2023-11-21T00:02:05;8.77;;;5.40;;
56746;SDS011;42623;49.978;9.966;2023-11-21T00:02:16;7.97;;;5.30;;
56746;SDS011;42623;49.978;9.966;2023-11-21T00:02:26;9.37;;;6.03;;
56746;SDS011;42623;49.978;9.966;2023-11-21T00:02:37;10.23;;;6.47;;
56746;SDS011;42623;49.978;9.966;2023-11-21T00:02:50;10.23;;;6.63;;
56746;SDS011;42623;49.978;9.966;2023-11-21T00:03:00;9.90;;;6.57;;
56746;SDS011;42623;49.978;9.966;2023-11-21T00:03:10;11.68;;;6.95;;
56746;SDS011;42623;49.978;9.966;2023-11-21T00:03:21;15.40;;;7.50;;
56746;SDS011;42623;49.978;9.966;2023-11-21T00:03:33;15.25;;;7.25;;
56746;SDS011;42623;49.978;9.966;2023-11-21T00:03:43;11.97;;;7.00;;
56746;SDS011;42623;49.978;9.966;2023-11-21T00:03:54;10.33;;;6.37;;
56746;SDS011;42623;49.978;9.966;2023-11-21T00:04:05;8.60;;;5.38;;
56746;SDS011;42623;49.978;9.966;2023-11-21T00:04:17;9.68;;;5.65;;
56746;SDS011;42623;49.978;9.966;2023-11-21T00:04:27;9.97;;;5.83;;
56746;SDS011;42623;49.978;9.966;2023-11-21T00:04:37;11.00;;;6.30;;
56746;SDS011;42623;49.978;9.966;2023-11-21T00:04:48;10.38;;;5.97;;
56746;SDS011;42623;49.978;9.966;2023-11-21T00:04:58;9.80;;;5.37;;
56746;SDS011;42623;49.978;9.966;2023-11-21T00:05:08;8.93;;;4.97;;
56746;SDS011;42623;49.978;9.966;2023-11-21T00:05:19;7.97;;;4.85;;
56746;SDS011;42623;49.978;9.966;2023-11-21T00:05:30;9.23;;;5.07;;
56746;SDS011;42623;49.978;9.966;2023-11-21T00:05:40;9.40;;;4.83;;
56746;SDS011;42623;49.978;9.966;2023-11-21T00:05:51;8.85;;;4.10;;
56746;SDS011;42623;49.978;9.966;2023-11-21T00:06:02;6.53;;;3.53;;
56746;SDS011;42623;49.978;9.966;2023-11-21T00:06:12;7.15;;;3.88;;
56746;SDS011;42623;49.978;9.966;2023-11-21T00:06:22;8.27;;;4.10;;
56746;SDS011;42623;49.978;9.966;2023-11-21T00:06:33;8.83;;;4.57;;
56746;SDS011;42623;49.978;9.966;2023-11-21T00:06:44;9.05;;;4.35;;
56746;SDS011;42623;49.978;9.966;2023-11-21T00:06:57;8.68;;;4.20;;
56746;SDS011;42623;49.978;9.966;2023-11-21T00:07:07;10.07;;;4.33;;
56746;SDS011;42623;49.978;9.966;2023-11-21T00:07:17;9.48;;;4.47;;
56746;SDS011;42623;49.978;9.966;2023-11-21T00:07:27;8.80;;;4.30;;
56746;SDS011;42623;49.978;9.966;2023-11-21T00:07:37;7.13;;;3.90;;
56746;SDS011;42623;49.978;9.966;2023-11-21T00:07:48;7.00;;;3.67;;
56746;SDS011;42623;49.978;9.966;2023-11-21T00:07:58;7.45;;;4.13;;
56746;SDS011;42623;49.978;9.966;2023-11-21T00:08:08;8.50;;;4.33;;
56746;SDS011;42623;49.978;9.966;2023-11-21T00:08:18;8.00;;;4.23;;
56746;SDS011;42623;49.978;9.966;2023-11-21T00:08:28;7.53;;;3.97;;
56746;SDS011;42623;49.978;9.966;2023-11-21T00:08:39;7.03;;;4.18;;
56746;SDS011;42623;49.978;9.966;2023-11-21T00:08:50;7.30;;;4.20;;
56746;SDS011;42623;49.978;9.966;2023-11-21T00:09:00;7.07;;;4.10;;
56746;SDS011;42623;49.978;9.966;2023-11-21T00:09:10;7.47;;;4.30;;
56746;SDS011;42623;49.978;9.966;2023-11-21T00:09:22;7.53;;;4.47;;
56746;SDS011;42623;49.978;9.966;2023-11-21T00:09:33;7.50;;;4.67;;
56746;SDS011;42623;49.978;9.966;2023-11-21T00:09:43;7.60;;;4.63;;
56746;SDS011;42623;49.978;9.966;2023-11-21T00:09:53;8.23;;;5.07;;
56746;SDS011;42623;49.978;9.966;2023-11-21T00:10:06;9.65;;;5.70;;
56746;SDS011;42623;49.978;9.966;2023-11-21T00:10:16;10.25;;;5.93;;
56746;SDS011;42623;49.978;9.966;2023-11-21T00:10:26;12.37;;;7.80;;
56746;SDS011;42623;49.978;9.966;2023-11-21T00:10:38;14.43;;;8.68;;
56746;SDS011;42623;49.978;9.966;2023-11-21T00:10:48;16.10;;;9.83;;
56746;SDS011;42623;49.978;9.966;2023-11-21T00:10:58;14.23;;;8.93;;
56746;SDS011;42623;49.978;9.966;2023-11-21T00:11:10;17.35;;;10.65;;
56746;SDS011;42623;49.978;9.966;2023-11-21T00:11:20;18.30;;;11.63;;
56746;SDS011;42623;49.978;9.966;2023-11-21T00:11:31;17.77;;;11.88;;
56746;SDS011;42623;49.978;9.966;2023-11-21T00:11:41;14.17;;;9.80;;
56746;SDS011;42623;49.978;9.966;2023-11-21T00:11:51;21.40;;;13.47;;
56746;SDS011;42623;49.978;9.966;2023-11-21T00:12:01;35.77;;;22.90;;
56746;SDS011;42623;49.978;9.966;2023-11-21T00:12:12;48.17;;;32.47;;
56746;SDS011;42623;49.978;9.966;2023-11-21T00:12:23;50.90;;;34.35;;
56746;SDS011;42623;49.978;9.966;2023-11-21T00:12:34;51.97;;;29.67;;
56746;SDS011;42623;49.978;9.966;2023-11-21T00:12:44;44.25;;;25.73;;
56746;SDS011;42623;49.978;9.966;2023-11-21T00:12:58;39.85;;;25.55;;
56746;SDS011;42623;49.978;9.966;2023-11-21T00:13:08;33.37;;;25.70;;
56746;SDS011;42623;49.978;9.966;2023-11-21T00:13:18;32.17;;;23.70;;
56746;SDS011;42623;49.978;9.966;2023-11-21T00:13:28;28.63;;;18.23;;
56746;SDS011;42623;49.978;9.966;2023-11-21T00:13:38;24.10;;;13.77;;
56746;SDS011;42623;49.978;9.966;2023-11-21T00:13:49;23.00;;;12.67;;
56746;SDS011;42623;49.978;9.966;2023-11-21T00:13:59;22.73;;;12.80;;
56746;SDS011;42623;49.978;9.966;2023-11-21T00:14:10;29.45;;;18.05;;
56746;SDS011;42623;49.978;9.966;2023-11-21T00:14:20;41.75;;;27.27;;
56746;SDS011;42623;49.978;9.966;2023-11-21T00:14:30;94.03;;;63.60;;
56746;SDS011;42623;49.978;9.966;2023-11-21T00:14:40;108.63;;;72.50;;
56746;SDS011;42623;49.978;9.966;2023-11-21T00:14:51;103.97;;;69.57;;
56746;SDS011;42623;49.978;9.966;2023-11-21T00:15:01;57.13;;;38.43;;
56746;SDS011;42623;49.978;9.966;2023-11-21T00:15:20;38.72;;;25.85;;
56746;SDS011;42623;49.978;9.966;2023-11-21T00:15:31;34.92;;;23.45;;
56746;SDS011;42623;49.978;9.966;2023-11-21T00:15:41;30.80;;;20.27;;
56746;SDS011;42623;49.978;9.966;2023-11-21T00:15:52;29.00;;;18.88;;
56746;SDS011;42623;49.978;9.966;2023-11-21T00:16:02;24.67;;;15.07;;
56746;SDS011;42623;49.978;9.966;2023-11-21T00:16:12;18.93;;;11.40;;
56746;SDS011;42623;49.978;9.966;2023-11-21T00:16:23;15.40;;;9.13;;
56746;SDS011;42623;49.978;9.966;2023-11-21T00:16:33;15.77;;;9.00;;
56746;SDS011;42623;49.978;9.966;2023-11-21T00:16:44;14.15;;;8.20;;
56746;SDS011;42623;49.978;9.966;2023-11-21T00:16:54;11.47;;;6.23;;
56746;SDS011;42623;49.978;9.966;2023-11-21T00:17:04;11.65;;;5.72;;
56746;SDS011;42623;49.978;9.966;2023-11-21T00:17:15;11.67;;;5.10;;
56746;SDS011;42623;49.978;9.966;2023-11-21T00:17:25;10.73;;;4.40;;
56746;SDS011;42623;49.978;9.966;2023-11-21T00:17:35;8.98;;;3.72;;
56746;SDS011;42623;49.978;9.966;2023-11-21T00:17:45;8.03;;;3.70;;
56746;SDS011;42623;49.978;9.966;2023-11-21T00:17:56;7.40;;;4.00;;
56746;SDS011;42623;49.978;9.966;2023-11-21T00:18:06;10.10;;;5.03;;
56746;SDS011;42623;49.978;9.966;2023-11-21T00:18:17;11.57;;;5.77;;
56746;SDS011;42623;49.978;9.966;2023-11-21T00:18:27;14.77;;;8.35;;
56746;SDS011;42623;49.978;9.966;2023-11-21T00:18:37;20.03;;;12.83;;
56746;SDS011;42623;49.978;9.966;2023-11-21T00:18:47;24.63;;;17.27;;
56746;SDS011;42623;49.978;9.966;2023-11-21T00:18:58;30.33;;;19.67;;
56746;SDS011;42623;49.978;9.966;2023-11-21T00:19:08;36.33;;;21.10;;
56746;SDS011;42623;49.978;9.966;2023-11-21T00:19:18;48.83;;;27.77;;
56746;SDS011;42623;49.978;9.966;2023-11-21T00:19:28;61.90;;;38.10;;
56746;SDS011;42623;49.978;9.966;2023-11-21T00:19:38;65.07;;;43.10;;
56746;SDS011;42623;49.978;9.966;2023-11-21T00:19:48;70.50;;;46.00;;
56746;SDS011;42623;49.978;9.966;2023-11-21T00:19:58;72.53;;;49.30;;
56746;SDS011;42623;49.978;9.966;2023-11-21T00:20:09;119.63;;;85.07;;
56746;SDS011;42623;49.978;9.966;2023-11-21T00:20:22;151.02;;;111.25;;
56746;SDS011;42623;49.978;9.966;2023-11-21T00:20:32;129.53;;;95.07;;
56746;SDS011;42623;49.978;9.966;2023-11-21T00:20:42;84.95;;;61.58;;
56746;SDS011;42623;49.978;9.966;2023-11-21T00:20:52;51.03;;;39.00;;
56746;SDS011;42623;49.978;9.966;2023-11-21T00:21:03;66.50;;;47.30;;
56746;SDS011;42623;49.978;9.966;2023-11-21T00:21:13;77.17;;;53.17;;
56746;SDS011;42623;49.978;9.966;2023-11-21T00:21:23;77.13;;;51.43;;
56746;SDS011;42623;49.978;9.966;2023-11-21T00:21:33;50.27;;;35.57;;
56746;SDS011;42623;49.978;9.966;2023-11-21T00:21:44;28.13;;;20.27;;
56746;SDS011;42623;49.978;9.966;2023-11-21T00:21:55;25.95;;;16.33;;
56746;SDS011;42623;49.978;9.966;2023-11-21T00:22:05;37.50;;;24.43;;
56746;SDS011;42623;49.978;9.966;2023-11-21T00:22:16;73.75;;;49.45;;
56746;SDS011;42623;49.978;9.966;2023-11-21T00:22:26;85.93;;;58.50;;
56746;SDS011;42623;49.978;9.966;2023-11-21T00:22:36;78.97;;;53.07;;
56746;SDS011;42623;49.978;9.966;2023-11-21T00:22:46;56.63;;;37.40;;
56746;SDS011;42623;49.978;9.966;2023-11-21T00:22:57;46.97;;;32.38;;
56746;SDS011;42623;49.978;9.966;2023-11-21T00:23:09;46.00;;;33.70;;
56746;SDS011;42623;49.978;9.966;2023-11-21T00:23:19;47.10;;;35.77;;
56746;SDS011;42623;49.978;9.966;2023-11-21T00:23:29;47.80;;;34.53;;
56746;SDS011;42623;49.978;9.966;2023-11-21T00:23:39;43.93;;;29.93;;
56746;SDS011;42623;49.978;9.966;2023-11-21T00:23:50;37.33;;;22.60;;
56746;SDS011;42623;49.978;9.966;2023-11-21T00:24:01;31.58;;;17.05;;
56746;SDS011;42623;49.978;9.966;2023-11-21T00:24:11;26.70;;;15.60;;
56746;SDS011;42623;49.978;9.966;2023-11-21T00:24:24;34.53;;;21.42;;
56746;SDS011;42623;49.978;9.966;2023-11-21T00:24:34;42.10;;;26.65;;
56746;SDS011;42623;49.978;9.966;2023-11-21T00:24:45;40.50;;;25.80;;
56746;SDS011;42623;49.978;9.966;2023-11-21T00:24:55;31.67;;;20.60;;
56746;SDS011;42623;49.978;9.966;2023-11-21T00:25:05;28.03;;;18.10;;
56746;SDS011;42623;49.978;9.966;2023-11-21T00:25:16;22.70;;;15.38;;
56746;SDS011;42623;49.978;9.966;2023-11-21T00:25:27;15.02;;;10.05;;
56746;SDS011;42623;49.978;9.966;2023-11-21T00:25:37;14.23;;;8.77;;
56746;SDS011;42623;49.978;9.966;2023-11-21T00:25:47;13.97;;;8.67;;
56746;SDS011;42623;49.978;9.966;2023-11-21T00:25:58;14.57;;;8.77;;
56746;SDS011;42623;49.978;9.966;2023-11-21T00:26:08;14.35;;;7.88;;
56746;SDS011;42623;49.978;9.966;2023-11-21T00:26:18;16.03;;;7.70;;
56746;SDS011;42623;49.978;9.966;2023-11-21T00:26:28;15.13;;;7.47;;
56746;SDS011;42623;49.978;9.966;2023-11-21T00:26:39;13.57;;;6.60;;
56746;SDS011;42623;49.978;9.966;2023-11-21T00:26:49;10.48;;;5.68;;
56746;SDS011;42623;49.978;9.966;2023-11-21T00:26:59;10.60;;;5.67;;
56746;SDS011;42623;49.978;9.966;2023-11-21T00:27:10;14.00;;;8.50;;
56746;SDS011;42623;49.978;9.966;2023-11-21T00:27:20;19.33;;;12.73;;
56746;SDS011;42623;49.978;9.966;2023-11-21T00:27:30;21.53;;;16.07;;
56746;SDS011;42623;49.978;9.966;2023-11-21T00:27:41;19.50;;;15.80;;
56746;SDS011;42623;49.978;9.966;2023-11-21T00:27:51;16.02;;;12.93;;
56746;SDS011;42623;49.978;9.966;2023-11-21T00:28:01;14.13;;;9.73;;
56746;SDS011;42623;49.978;9.966;2023-11-21T00:28:11;13.63;;;8.18;;
56746;SDS011;42623;49.978;9.966;2023-11-21T00:28:22;14.63;;;8.47;;
56746;SDS011;42623;49.978;9.966;2023-11-21T00:28:32;15.23;;;10.77;;
56746;SDS011;42623;49.978;9.966;2023-11-21T00:28:42;14.63;;;11.77;;
56746;SDS011;42623;49.978;9.966;2023-11-21T00:28:53;12.07;;;10.45;;
56746;SDS011;42623;49.978;9.966;2023-11-21T00:29:03;8.97;;;6.67;;
56746;SDS011;42623;49.978;9.966;2023-11-21T00:29:13;11.00;;;5.80;;
56746;SDS011;42623;49.978;9.966;2023-11-21T00:29:23;11.43;;;6.53;;
56746;SDS011;42623;49.978;9.966;2023-11-21T00:29:33;12.90;;;8.13;;
56746;SDS011;42623;49.978;9.966;2023-11-21T00:29:43;11.17;;;8.83;;
56746;SDS011;42623;49.978;9.966;2023-11-21T00:29:54;12.83;;;10.07;;
56746;SDS011;42623;49.978;9.966;2023-11-21T00:30:04;12.05;;;9.82;;
56746;SDS011;42623;49.978;9.966;2023-11-21T00:30:15;11.38;;;9.30;;
56746;SDS011;42623;49.978;9.966;2023-11-21T00:30:26;10.73;;;8.43;;
56746;SDS011;42623;49.978;9.966;2023-11-21T00:30:36;10.82;;;8.25;;
56746;SDS011;42623;49.978;9.966;2023-11-21T00:30:46;10.33;;;7.10;;
56746;SDS011;42623;49.978;9.966;2023-11-21T00:30:56;8.97;;;5.53;;
56746;SDS011;42623;49.978;9.966;2023-11-21T00:31:06;8.50;;;4.90;;
56746;SDS011;42623;49.978;9.966;2023-11-21T00:31:16;7.50;;;4.10;;
56746;SDS011;42623;49.978;9.966;2023-11-21T00:31:26;6.95;;;3.70;;
56746;SDS011;42623;49.978;9.966;2023-11-21T00:31:37;7.50;;;3.77;;
56746;SDS011;42623;49.978;9.966;2023-11-21T00:31:47;7.40;;;3.97;;
56746;SDS011;42623;49.978;9.966;2023-11-21T00:31:57;8.00;;;4.07;;
56746;SDS011;42623;49.978;9.966;2023-11-21T00:32:08;7.55;;;3.60;;
56746;SDS011;42623;49.978;9.966;2023-11-21T00:32:19;7.38;;;3.30;;
56746;SDS011;42623;49.978;9.966;2023-11-21T00:32:29;7.77;;;3.37;;
56746;SDS011;42623;49.978;9.966;2023-11-21T00:32:39;6.80;;;2.87;;
56746;SDS011;42623;49.978;9.966;2023-11-21T00:32:49;6.38;;;2.70;;
56746;SDS011;42623;49.978;9.966;2023-11-21T00:33:00;4.87;;;2.33;;
56746;SDS011;42623;49.978;9.966;2023-11-21T00:33:10;5.33;;;2.27;;
56746;SDS011;42623;49.978;9.966;2023-11-21T00:33:20;4.97;;;2.22;;
56746;SDS011;42623;49.978;9.966;2023-11-21T00:33:30;4.37;;;2.17;;
56746;SDS011;42623;49.978;9.966;2023-11-21T00:33:40;4.07;;;2.30;;
56746;SDS011;42623;49.978;9.966;2023-11-21T00:33:51;4.60;;;2.33;;
56746;SDS011;42623;49.978;9.966;2023-11-21T00:34:02;5.63;;;2.70;;
56746;SDS011;42623;49.978;9.966;2023-11-21T00:34:13;6.97;;;2.58;;
56746;SDS011;42623;49.978;9.966;2023-11-21T00:34:23;7.23;;;2.53;;
56746;SDS011;42623;49.978;9.966;2023-11-21T00:34:33;7.00;;;2.50;;
56746;SDS011;42623;49.978;9.966;2023-11-21T00:34:44;6.60;;;2.53;;
56746;SDS011;42623;49.978;9.966;2023-11-21T00:34:54;6.47;;;2.40;;
56746;SDS011;42623;49.978;9.966;2023-11-21T00:35:04;6.57;;;2.40;;
56746;SDS011;42623;49.978;9.966;2023-11-21T00:35:15;5.43;;;2.50;;
56746;SDS011;42623;49.978;9.966;2023-11-21T00:35:25;6.18;;;2.80;;
56746;SDS011;42623;49.978;9.966;2023-11-21T00:35:36;6.40;;;3.23;;
56746;SDS011;42623;49.978;9.966;2023-11-21T00:35:46;6.43;;;3.23;;
56746;SDS011;42623;49.978;9.966;2023-11-21T00:35:56;6.03;;;2.93;;
56746;SDS011;42623;49.978;9.966;2023-11-21T00:36:06;5.68;;;2.60;;
56746;SDS011;42623;49.978;9.966;2023-11-21T00:36:19;5.72;;;2.50;;
56746;SDS011;42623;49.978;9.966;2023-11-21T00:36:29;5.50;;;2.67;;
56746;SDS011;42623;49.978;9.966;2023-11-21T00:36:39;6.00;;;2.80;;
56746;SDS011;42623;49.978;9.966;2023-11-21T00:36:50;6.13;;;3.07;;
56746;SDS011;42623;49.978;9.966;2023-11-21T00:37:00;6.00;;;3.00;;
56746;SDS011;42623;49.978;9.966;2023-11-21T00:37:10;5.30;;;2.80;;
56746;SDS011;42623;49.978;9.966;2023-11-21T00:37:20;5.00;;;2.63;;
56746;SDS011;42623;49.978;9.966;2023-11-21T00:37:30;5.00;;;2.53;;
56746;SDS011;42623;49.978;9.966;2023-11-21T00:37:42;6.22;;;2.70;;
56746;SDS011;42623;49.978;9.966;2023-11-21T00:37:52;6.13;;;2.70;;
56746;SDS011;42623;49.978;9.966;2023-11-21T00:38:02;5.43;;;2.50;;
56746;SDS011;42623;49.978;9.966;2023-11-21T00:38:13;5.25;;;2.45;;
56746;SDS011;42623;49.978;9.966;2023-11-21T00:38:23;4.97;;;2.20;;
56746;SDS011;42623;49.978;9.966;2023-11-21T00:38:34;5.10;;;2.25;;
56746;SDS011;42623;49.978;9.966;2023-11-21T00:38:44;3.97;;;2.10;;
56746;SDS011;42623;49.978;9.966;2023-11-21T00:38:54;3.87;;;2.10;;
56746;SDS011;42623;49.978;9.966;2023-11-21T00:39:05;4.40;;;2.30;;
56746;SDS011;42623;49.978;9.966;2023-11-21T00:39:16;3.97;;;1.92;;
56746;SDS011;42623;49.978;9.966;2023-11-21T00:39:26;4.50;;;2.07;;
56746;SDS011;42623;49.978;9.966;2023-11-21T00:39:36;3.80;;;1.90;;
56746;SDS011;42623;49.978;9.966;2023-11-21T00:39:46;4.13;;;2.00;;
56746;SDS011;42623;49.978;9.966;2023-11-21T00:39:56;4.10;;;2.00;;
56746;SDS011;42623;49.978;9.966;2023-11-21T00:40:06;3.65;;;1.80;;
56746;SDS011;42623;49.978;9.966;2023-11-21T00:40:17;4.97;;;1.88;;
56746;SDS011;42623;49.978;9.966;2023-11-21T00:40:30;4.60;;;1.77;;
56746;SDS011;42623;49.978;9.966;2023-11-21T00:40:41;4.77;;;1.93;;
56746;SDS011;42623;49.978;9.966;2023-11-21T00:40:51;3.17;;;1.70;;
56746;SDS011;42623;49.978;9.966;2023-11-21T00:41:03;3.45;;;1.60;;
56746;SDS011;42623;49.978;9.966;2023-11-21T00:41:13;4.10;;;1.90;;
56746;SDS011;42623;49.978;9.966;2023-11-21T00:41:23;4.63;;;2.07;;
56746;SDS011;42623;49.978;9.966;2023-11-21T00:41:34;4.70;;;2.20;;
56746;SDS011;42623;49.978;9.966;2023-11-21T00:41:44;4.85;;;2.05;;
56746;SDS011;42623;49.978;9.966;2023-11-21T00:41:54;4.60;;;2.10;;
56746;SDS011;42623;49.978;9.966;2023-11-21T00:42:05;3.80;;;1.85;;
56746;SDS011;42623;49.978;9.966;2023-11-21T00:42:15;2.73;;;1.50;;
56746;SDS011;42623;49.978;9.966;2023-11-21T00:42:25;3.80;;;1.40;;
56746;SDS011;42623;49.978;9.966;2023-11-21T00:42:35;4.40;;;1.60;;
56746;SDS011;42623;49.978;9.966;2023-11-21T00:42:45;5.30;;;1.80;;
56746;SDS011;42623;49.978;9.966;2023-11-21T00:42:56;4.00;;;1.77;;
56746;SDS011;42623;49.978;9.966;2023-11-21T00:43:06;3.97;;;1.80;;
56746;SDS011;42623;49.978;9.966;2023-11-21T00:43:16;3.75;;;1.80;;
56746;SDS011;42623;49.978;9.966;2023-11-21T00:43:26;3.77;;;1.80;;
56746;SDS011;42623;49.978;9.966;2023-11-21T00:43:37;3.30;;;1.67;;
56746;SDS011;42623;49.978;9.966;2023-11-21T00:43:47;4.17;;;1.73;;
56746;SDS011;42623;49.978;9.966;2023-11-21T00:43:57;4.83;;;1.97;;
56746;SDS011;42623;49.978;9.966;2023-11-21T00:44:07;6.07;;;2.17;;
56746;SDS011;42623;49.978;9.966;2023-11-21T00:44:17;5.20;;;2.20;;
56746;SDS011;42623;49.978;9.966;2023-11-21T00:44:27;6.17;;;2.40;;
56746;SDS011;42623;49.978;9.966;2023-11-21T00:44:38;5.20;;;2.30;;
56746;SDS011;42623;49.978;9.966;2023-11-21T00:44:49;4.68;;;2.15;;
56746;SDS011;42623;49.978;9.966;2023-11-21T00:44:59;2.93;;;1.57;;
56746;SDS011;42623;49.978;9.966;2023-11-21T00:45:09;3.33;;;1.40;;
56746;SDS011;42623;49.978;9.966;2023-11-21T00:45:20;3.50;;;1.33;;
56746;SDS011;42623;49.978;9.966;2023-11-21T00:45:30;4.10;;;1.50;;
56746;SDS011;42623;49.978;9.966;2023-11-21T00:45:40;3.77;;;1.53;;
56746;SDS011;42623;49.978;9.966;2023-11-21T00:45:50;4.60;;;1.93;;
56746;SDS011;42623;49.978;9.966;2023-11-21T00:46:03;3.55;;;1.80;;
56746;SDS011;42623;49.978;9.966;2023-11-21T00:46:14;3.65;;;1.80;;
56746;SDS011;42623;49.978;9.966;2023-11-21T00:46:24;3.93;;;1.80;;
56746;SDS011;42623;49.978;9.966;2023-11-21T00:46:36;4.32;;;1.92;;
56746;SDS011;42623;49.978;9.966;2023-11-21T00:46:47;4.53;;;1.90;;
56746;SDS011;42623;49.978;9.966;2023-11-21T00:46:57;4.27;;;1.73;;
56746;SDS011;42623;49.978;9.966;2023-11-21T00:47:07;4.07;;;1.73;;
56746;SDS011;42623;49.978;9.966;2023-11-21T00:47:18;3.40;;;1.52;;
56746;SDS011;42623;49.978;9.966;2023-11-21T00:47:28;3.43;;;1.40;;
56746;SDS011;42623;49.978;9.966;2023-11-21T00:47:38;4.43;;;1.43;;
56746;SDS011;42623;49.978;9.966;2023-11-21T00:47:48;4.32;;;1.40;;
56746;SDS011;42623;49.978;9.966;2023-11-21T00:47:58;3.87;;;1.47;;
56746;SDS011;42623;49.978;9.966;2023-11-21T00:48:08;3.43;;;1.50;;
56746;SDS011;42623;49.978;9.966;2023-11-21T00:48:19;3.93;;;1.70;;
56746;SDS011;42623;49.978;9.966;2023-11-21T00:48:29;4.70;;;1.90;;
56746;SDS011;42623;49.978;9.966;2023-11-21T00:48:39;5.00;;;2.20;;
56746;SDS011;42623;49.978;9.966;2023-11-21T00:48:49;4.73;;;2.17;;
56746;SDS011;42623;49.978;9.966;2023-11-21T00:48:59;3.67;;;1.90;;
56746;SDS011;42623;49.978;9.966;2023-11-21T00:49:09;3.10;;;1.60;;
56746;SDS011;42623;49.978;9.966;2023-11-21T00:49:20;4.23;;;1.80;;
56746;SDS011;42623;49.978;9.966;2023-11-21T00:49:30;6.70;;;2.15;;
56746;SDS011;42623;49.978;9.966;2023-11-21T00:49:41;9.07;;;2.60;;
56746;SDS011;42623;49.978;9.966;2023-11-21T00:49:51;8.97;;;2.80;;
56746;SDS011;42623;49.978;9.966;2023-11-21T00:50:01;7.77;;;2.83;;
56746;SDS011;42623;49.978;9.966;2023-11-21T00:50:11;6.30;;;2.57;;
56746;SDS011;42623;49.978;9.966;2023-11-21T00:50:22;6.82;;;2.28;;
56746;SDS011;42623;49.978;9.966;2023-11-21T00:50:32;6.70;;;2.27;;
56746;SDS011;42623;49.978;9.966;2023-11-21T00:50:42;6.00;;;2.20;;
56746;SDS011;42623;49.978;9.966;2023-11-21T00:50:52;4.87;;;2.10;;
56746;SDS011;42623;49.978;9.966;2023-11-21T00:51:02;4.00;;;1.80;;
56746;SDS011;42623;49.978;9.966;2023-11-21T00:51:12;4.00;;;1.80;;
56746;SDS011;42623;49.978;9.966;2023-11-21T00:51:23;4.47;;;1.90;;
56746;SDS011;42623;49.978;9.966;2023-11-21T00:51:33;4.50;;;1.90;;
56746;SDS011;42623;49.978;9.966;2023-11-21T00:51:43;4.07;;;1.80;;
56746;SDS011;42623;49.978;9.966;2023-11-21T00:51:53;4.03;;;1.90;;
56746;SDS011;42623;49.978;9.966;2023-11-21T00:52:04;4.20;;;2.00;;
56746;SDS011;42623;49.978;9.966;2023-11-21T00:52:14;4.70;;;2.20;;
56746;SDS011;42623;49.978;9.966;2023-11-21T00:52:24;4.30;;;1.93;;
56746;SDS011;42623;49.978;9.966;2023-11-21T00:52:34;5.50;;;2.13;;
56746;SDS011;42623;49.978;9.966;2023-11-21T00:52:45;4.78;;;1.98;;
56746;SDS011;42623;49.978;9.966;2023-11-21T00:52:56;4.47;;;1.97;;
56746;SDS011;42623;49.978;9.966;2023-11-21T00:53:06;3.00;;;1.63;;
56746;SDS011;42623;49.978;9.966;2023-11-21T00:53:17;3.53;;;1.75;;
56746;SDS011;42623;49.978;9.966;2023-11-21T00:53:27;3.30;;;1.63;;
56746;SDS011;42623;49.978;9.966;2023-11-21T00:53:37;3.93;;;1.93;;
56746;SDS011;42623;49.978;9.966;2023-11-21T00:53:47;4.20;;;2.00;;
56746;SDS011;42623;49.978;9.966;2023-11-21T00:53:58;4.45;;;1.95;;
56746;SDS011;42623;49.978;9.966;2023-11-21T00:54:08;4.03;;;1.77;;
56746;SDS011;42623;49.978;9.966;2023-11-21T00:54:18;3.27;;;1.60;;
56746;SDS011;42623;49.978;9.966;2023-11-21T00:54:28;3.03;;;1.70;;
56746;SDS011;42623;49.978;9.966;2023-11-21T00:54:38;3.63;;;2.10;;
56746;SDS011;42623;49.978;9.966;2023-11-21T00:54:48;5.03;;;2.93;;
56746;SDS011;42623;49.978;9.966;2023-11-21T00:54:59;6.47;;;3.50;;
56746;SDS011;42623;49.978;9.966;2023-11-21T00:55:10;8.23;;;4.97;;
56746;SDS011;42623;49.978;9.966;2023-11-21T00:55:21;10.73;;;7.07;;
56746;SDS011;42623;49.978;9.966;2023-11-21T00:55:32;11.37;;;7.80;;
56746;SDS011;42623;49.978;9.966;2023-11-21T00:55:42;9.60;;;5.93;;
56746;SDS011;42623;49.978;9.966;2023-11-21T00:55:52;7.00;;;3.67;;
56746;SDS011;42623;49.978;9.966;2023-11-21T00:56:07;6.28;;;2.47;;
56746;SDS011;42623;49.978;9.966;2023-11-21T00:56:18;6.43;;;2.70;;
56746;SDS011;42623;49.978;9.966;2023-11-21T00:56:28;6.07;;;2.67;;
56746;SDS011;42623;49.978;9.966;2023-11-21T00:56:38;4.90;;;2.67;;
56746;SDS011;42623;49.978;9.966;2023-11-21T00:56:49;4.57;;;2.35;;
56746;SDS011;42623;49.978;9.966;2023-11-21T00:57:00;6.47;;;2.70;;
56746;SDS011;42623;49.978;9.966;2023-11-21T00:57:10;6.60;;;2.57;;
56746;SDS011;42623;49.978;9.966;2023-11-21T00:57:21;6.90;;;2.67;;
56746;SDS011;42623;49.978;9.966;2023-11-21T00:57:32;5.80;;;2.53;;
56746;SDS011;42623;49.978;9.966;2023-11-21T00:57:42;5.93;;;2.80;;
56746;SDS011;42623;49.978;9.966;2023-11-21T00:57:52;6.37;;;2.73;;
56746;SDS011;42623;49.978;9.966;2023-11-21T00:58:02;7.13;;;2.75;;
56746;SDS011;42623;49.978;9.966;2023-11-21T00:58:14;7.18;;;2.75;;
56746;SDS011;42623;49.978;9.966;2023-11-21T00:58:24;6.07;;;2.90;;
56746;SDS011;42623;49.978;9.966;2023-11-21T00:58:34;6.10;;;3.10;;
56746;SDS011;42623;49.978;9.966;2023-11-21T00:58:45;5.90;;;2.90;;
56746;SDS011;42623;49.978;9.966;2023-11-21T00:58:59;4.93;;;2.45;;
56746;SDS011;42623;49.978;9.966;2023-11-21T00:59:09;5.20;;;2.70;;
56746;SDS011;42623;49.978;9.966;2023-11-21T00:59:21;5.50;;;3.05;;
56746;SDS011;42623;49.978;9.966;2023-11-21T00:59:33;4.53;;;2.67;;
56746;SDS011;42623;49.978;9.966;2023-11-21T00:59:43;4.17;;;2.27;;
56746;SDS011;42623;49.978;9.966;2023-11-21T00:59:53;3.57;;;1.90;;
56746;SDS011;42623;49.978;9.966;2023-11-21T01:00:03;4.90;;;2.45;;
56746;SDS011;42623;49.978;9.966;2023-11-21T01:00:17;6.07;;;3.03;;
56746;SDS011;42623;49.978;9.966;2023-11-21T01:00:28;6.87;;;3.23;;
56746;SDS011;42623;49.978;9.966;2023-11-21T01:00:38;6.07;;;2.95;;
56746;SDS011;42623;49.978;9.966;2023-11-21T01:00:49;5.80;;;2.80;;
56746;SDS011;42623;49.978;9.966;2023-11-21T01:00:59;5.50;;;2.67;;
56746;SDS011;42623;49.978;9.966;2023-11-21T01:01:09;5.93;;;2.57;;
56746;SDS011;42623;49.978;9.966;2023-11-21T01:01:20;5.37;;;2.30;;
56746;SDS011;42623;49.978;9.966;2023-11-21T01:01:31;4.47;;;2.08;;
56746;SDS011;42623;49.978;9.966;2023-11-21T01:01:42;3.97;;;2.00;;
56746;SDS011;42623;49.978;9.966;2023-11-21T01:01:52;4.80;;;2.17;;
56746;SDS011;42623;49.978;9.966;2023-11-21T01:02:03;4.75;;;2.10;;
56746;SDS011;42623;49.978;9.966;2023-11-21T01:02:14;4.45;;;1.92;;
56746;SDS011;42623;49.978;9.966;2023-11-21T01:02:25;3.10;;;1.67;;
56746;SDS011;42623;49.978;9.966;2023-11-21T01:02:35;3.50;;;1.65;;
56746;SDS011;42623;49.978;9.966;2023-11-21T01:02:45;3.23;;;1.53;;
56746;SDS011;42623;49.978;9.966;2023-11-21T01:02:57;3.70;;;1.50;;